ADDS METAR Data INFO
IDs: Format: Raw Decoded Include TAF

Data at: 0518 UTC 19 Jan 2018

KCKC 190455Z AUTO 00000KT 10SM OVC010 M04/M07 A2962 RMK AO2
KCKC 190435Z AUTO 24004KT 10SM OVC010 M04/M07 A2963 RMK AO2
KCKC 190415Z AUTO 00000KT 10SM OVC010 M03/M07 A2963 RMK AO2
KCKC 190355Z AUTO 00000KT 10SM OVC010 M03/M07 A2963 RMK AO2
KCKC 190335Z AUTO 00000KT 10SM OVC010 M03/M07 A2963 RMK AO2
KCKC 190315Z AUTO 00000KT 10SM OVC010 M03/M06 A2964 RMK AO2
KCKC 190255Z AUTO 22003KT 10SM OVC010 M03/M06 A2964 RMK AO2
KCKC 190235Z AUTO 00000KT 10SM OVC012 M03/M06 A2963 RMK AO2
KCKC 190215Z AUTO 00000KT 10SM OVC010 M03/M06 A2963 RMK AO2
KCKC 190155Z AUTO 00000KT 10SM OVC010 M03/M06 A2965 RMK AO2
KCKC 190135Z AUTO 27003KT 10SM OVC008 M03/M06 A2966 RMK AO2
KCKC 190115Z AUTO 28003KT 10SM OVC008 M03/M05 A2965 RMK AO2
KCKC 190055Z AUTO 26004KT 10SM OVC010 M02/M06 A2966 RMK AO2
KCKC 190035Z AUTO 28004KT 10SM OVC010 M02/M06 A2967 RMK AO2
KCKC 190015Z AUTO 27004KT 10SM OVC010 M02/M05 A2967 RMK AO2
KCKC 182355Z AUTO 26004KT 10SM OVC008 M02/M05 A2966 RMK AO2
KCKC 182335Z AUTO 00000KT 10SM OVC008 M02/M05 A2966 RMK AO2
KCKC 182315Z AUTO 28005KT 10SM OVC006 M02/M05 A2965 RMK AO2
KCKC 182255Z AUTO 25004KT 10SM OVC008 M02/M04 A2965 RMK AO2
KCKC 182235Z AUTO 28004KT 10SM OVC008 M02/M05 A2966 RMK AO2
KCKC 182215Z AUTO 28004KT 10SM OVC006 M02/M05 A2967 RMK AO2
KCKC 182155Z AUTO 28006KT 10SM OVC006 M02/M04 A2965 RMK AO2
KCKC 182135Z AUTO 28007KT 259V319 10SM OVC006 M02/M04 A2965 RMK AO2
KCKC 182115Z AUTO 29003KT 10SM OVC006 M02/M04 A2964 RMK AO2
KCKC 182055Z AUTO 27007KT 10SM OVC006 M02/M04 A2963 RMK AO2
KCKC 182035Z AUTO 29006KT 10SM OVC006 M02/M04 A2963 RMK AO2
KCKC 182015Z AUTO 29006KT 10SM OVC006 M02/M04 A2963 RMK AO2
KCKC 181955Z AUTO 29007KT 249V319 10SM OVC006 M02/M04 A2962 RMK AO2 P0001
KCKC 181935Z AUTO 28007KT 249V319 10SM OVC006 M02/M04 A2961 RMK AO2 P0001
KCKC 181915Z AUTO 29007G14KT 249V329 10SM OVC006 M02/M04 A2961 RMK AO2
KCKC 181855Z AUTO 28007KT 249V329 10SM OVC006 M02/M04 A2962 RMK AO2
KCKC 181835Z AUTO 29007KT 10SM OVC006 M02/M04 A2962 RMK AO2
KCKC 181815Z AUTO 28005KT 10SM OVC006 M02/M04 A2963 RMK AO2
KCKC 181755Z AUTO 28006KT 5SM HZ OVC006 M02/M04 A2963 RMK AO2
KCKC 181735Z AUTO 28007KT 7SM OVC006 M02/M04 A2963 RMK AO2
KCKC 181715Z AUTO 29006KT 7SM OVC006 M02/M04 A2964 RMK AO2
KCKC 181655Z AUTO 28005KT 5SM HZ OVC006 M02/M05 A2964 RMK AO2
KCKC 181635Z AUTO 28006KT 7SM OVC006 M02/M05 A2964 RMK AO2
KCKC 181615Z AUTO 28007KT 10SM OVC006 M02/M05 A2963 RMK AO2
KCKC 181555Z AUTO 27008KT 239V299 10SM OVC008 M02/M05 A2963 RMK AO2
KCKC 181535Z AUTO 28005KT 10SM OVC008 M02/M05 A2962 RMK AO2
KCKC 181515Z AUTO 28004KT 10SM BKN010 OVC039 M03/M06 A2962 RMK AO2
KCKC 181455Z AUTO 26003KT 10SM SCT012 OVC039 M03/M06 A2962 RMK AO2
KCKC 181435Z AUTO 26004KT 10SM SCT012 BKN035 OVC085 M04/M06 A2962 RMK AO2
KCKC 181415Z AUTO 00000KT 10SM SCT012 BKN060 OVC095 M04/M07 A2961 RMK AO2
KCKC 181355Z AUTO 00000KT 10SM OVC009 M05/M07 A2962 RMK AO2
KCKC 181335Z AUTO 00000KT 7SM BKN009 BKN015 OVC048 M06/M08 A2962 RMK AO2
KCKC 181315Z AUTO 23003KT 10SM -SN SCT014 SCT048 OVC060 M04/M06 A2961 RMK AO2
KCKC 181255Z AUTO 00000KT 5SM -SN SCT018 SCT029 OVC060 M07/M09 A2961 RMK AO2
KCKC 181235Z AUTO 19003KT 2 1/2SM -SN SCT018 BKN028 OVC060 M07/M09 A2962 RMK AO2 VIS 1 1/2V4
KCKC 181215Z AUTO 00000KT 7SM -SN SCT047 BKN065 OVC095 M09/M11 A2964 RMK AO2
KCKC 181155Z AUTO 00000KT 10SM SCT080 OVC100 M09/M11 A2965 RMK AO2
KCKC 181135Z AUTO 00000KT 10SM BKN110 M09/M12 A2966 RMK AO2
KCKC 181115Z AUTO 21003KT 10SM CLR M09/M11 A2966 RMK AO2
KCKC 181055Z AUTO 00000KT 10SM CLR M09/M12 A2966 RMK AO2
KCKC 181035Z AUTO 00000KT 10SM CLR M08/M11 A2966 RMK AO2
KCKC 181015Z AUTO 00000KT 10SM SCT019 M08/M11 A2967 RMK AO2
KCKC 180955Z AUTO 24003KT 10SM OVC021 M08/M11 A2968 RMK AO2
KCKC 180935Z AUTO 00000KT 10SM BKN023 M08/M11 A2969 RMK AO2
KCKC 180915Z AUTO 21003KT 10SM SCT023 M08/M11 A2970 RMK AO2
KCKC 180855Z AUTO 21003KT 10SM CLR M09/M11 A2971 RMK AO2
KCKC 180835Z AUTO 23003KT 10SM CLR M08/M11 A2971 RMK AO2
KCKC 180815Z AUTO 23004KT 10SM SCT019 M08/M11 A2972 RMK AO2
KCKC 180755Z AUTO 23004KT 10SM OVC019 M08/M11 A2972 RMK AO2
KCKC 180735Z AUTO 22003KT 10SM OVC017 M08/M11 A2972 RMK AO2
KCKC 180715Z AUTO 23003KT 10SM BKN017 M08/M11 A2972 RMK AO2
KCKC 180655Z AUTO 23004KT 10SM CLR M09/M12 A2973 RMK AO2
KCKC 180635Z AUTO 23003KT 10SM CLR M09/M12 A2973 RMK AO2
KCKC 180615Z AUTO 24003KT 10SM CLR M08/M11 A2973 RMK AO2
KCKC 180555Z AUTO 00000KT 10SM CLR M08/M11 A2973 RMK AO2
KCKC 180535Z AUTO 00000KT 10SM CLR M08/M11 A2973 RMK AO2
KCKC 180516Z AUTO 00000KT 10SM CLR M07/M11 A2973 RMK AO2
KCKC 180455Z AUTO 25004KT 10SM CLR M07/M11 A2973 RMK AO2
KCKC 180435Z AUTO 25003KT 10SM CLR M07/M11 A2974 RMK AO2
KCKC 180415Z AUTO 25004KT 10SM CLR M06/M11 A2974 RMK AO2
KCKC 180355Z AUTO 27005KT 10SM CLR M06/M11 A2973 RMK AO2
KCKC 180335Z AUTO 26004KT 10SM CLR M06/M11 A2973 RMK AO2
KCKC 180315Z AUTO 27004KT 10SM CLR M06/M12 A2973 RMK AO2
KCKC 180255Z AUTO 27007KT 239V299 10SM CLR M06/M12 A2973 RMK AO2
KCKC 180235Z AUTO 27008G14KT 10SM CLR M06/M12 A2973 RMK AO2
KCKC 180215Z AUTO 26005KT 10SM CLR M06/M12 A2974 RMK AO2
KCKC 180155Z AUTO 26006KT 10SM CLR M05/M12 A2975 RMK AO2
KCKC 180135Z AUTO 25006KT 10SM CLR M06/M12 A2974 RMK AO2
KCKC 180115Z AUTO 26006KT 10SM CLR M06/M12 A2974 RMK AO2
KCKC 180056Z AUTO 25008G14KT 10SM CLR M06/M12 A2974 RMK AO2
KCKC 180035Z AUTO 26007KT 10SM CLR M06/M12 A2974 RMK AO2
KCKC 180015Z AUTO 25007KT 229V289 10SM CLR M06/M12 A2973 RMK AO2
KCKC 172355Z AUTO 25005KT 10SM CLR M06/M12 A2974 RMK AO2
KCKC 172335Z AUTO 25006KT 10SM CLR M05/M12 A2973 RMK AO2
KCKC 172315Z AUTO 26007KT 10SM CLR M05/M12 A2974 RMK AO2
KCKC 172255Z AUTO 26006KT 10SM CLR M04/M12 A2973 RMK AO2
KCKC 172235Z AUTO 26005KT 10SM CLR M04/M12 A2973 RMK AO2
KCKC 172215Z AUTO 26005KT 10SM CLR M04/M13 A2973 RMK AO2
KCKC 172155Z AUTO 25004KT 10SM CLR M03/M13 A2973 RMK AO2
KCKC 172135Z AUTO 24007G17KT 209V289 10SM CLR M03/M13 A2973 RMK AO2
KCKC 172115Z AUTO 24007G17KT 10SM CLR M02/M13 A2973 RMK AO2
KCKC 172055Z AUTO 24009G16KT 10SM CLR M02/M13 A2972 RMK AO2
KCKC 172035Z AUTO 25010G19KT 10SM CLR M01/M14 A2974 RMK AO2
KCKC 172015Z AUTO 25008G15KT 10SM CLR M01/M14 A2974 RMK AO2
KCKC 171955Z AUTO 24009KT 219V279 10SM CLR M01/M14 A2974 RMK AO2
KCKC 171935Z AUTO 24007G15KT 10SM CLR M01/M14 A2975 RMK AO2
KCKC 171915Z AUTO 25008G16KT 209V269 10SM CLR M01/M14 A2976 RMK AO2
KCKC 171855Z AUTO 24009G17KT 10SM CLR M01/M14 A2976 RMK AO2 P0001
KCKC 171835Z AUTO 23008KT 199V279 10SM CLR M01/M14 A2977 RMK AO2 P0001
KCKC 171815Z AUTO 24007G14KT 199V279 10SM CLR M02/M14 A2979 RMK AO2 P0001
KCKC 171755Z AUTO 24007G14KT 219V279 10SM CLR M03/M15 A2980 RMK AO2
KCKC 171735Z AUTO 23005KT 10SM CLR M04/M14 A2981 RMK AO2